createdAt,value
2018-11-28T00:01:41.213Z,99112.66
2018-11-28T00:04:10.996Z,99103.75
2018-11-28T00:06:40.832Z,99110.27
2018-11-28T00:09:10.752Z,99097.77
2018-11-28T00:11:40.665Z,99098.39
2018-11-28T00:14:10.585Z,99104.39
2018-11-28T00:16:40.449Z,99098.25
2018-11-28T00:19:10.412Z,99100.05
2018-11-28T00:21:40.325Z,99095.61
2018-11-28T00:24:10.267Z,99086.82
2018-11-28T00:26:40.044Z,99088.80
2018-11-28T00:29:10.069Z,99097.47
2018-11-28T00:31:39.929Z,99100.38
2018-11-28T00:34:09.913Z,99104.61
2018-11-28T00:36:39.803Z,99100.02
2018-11-28T00:39:10.268Z,99102.41
2018-11-28T00:41:40.144Z,99106.67
2018-11-28T00:44:10.736Z,99104.34
2018-11-28T00:46:40.734Z,99099.78
2018-11-28T00:49:10.641Z,99100.61
2018-11-28T00:51:40.531Z,99098.95
2018-11-28T00:54:10.364Z,99106.73
2018-11-28T00:56:40.308Z,99107.63
2018-11-28T00:59:10.176Z,99102.39
2018-11-28T01:01:40.045Z,99107.54
2018-11-28T01:04:10.117Z,99104.23
2018-11-28T01:06:39.956Z,99107.24
2018-11-28T01:09:09.844Z,99112.34
2018-11-28T01:11:39.695Z,99114.81
2018-11-28T01:14:09.572Z,99114.43
2018-11-28T01:16:39.505Z,99115.75
2018-11-28T01:19:09.429Z,99113.33
2018-11-28T01:21:39.265Z,99116.38
2018-11-28T01:24:09.189Z,99119.19
2018-11-28T01:26:38.972Z,99115.09
2018-11-28T01:29:10.182Z,99110.53
2018-11-28T01:31:40.079Z,99113.52
2018-11-28T01:34:10.038Z,99113.33
2018-11-28T01:36:39.909Z,99110.19
2018-11-28T01:39:09.720Z,99101.81
2018-11-28T01:41:39.540Z,99104.20
2018-11-28T01:44:09.412Z,99104.97
2018-11-28T01:46:39.232Z,99104.61
2018-11-28T01:49:09.220Z,99102.66
2018-11-28T01:51:39.104Z,99103.53
2018-11-28T01:54:10.060Z,99103.41
2018-11-28T01:56:39.964Z,99096.25
2018-11-28T01:59:09.908Z,99099.22
2018-11-28T02:01:39.794Z,99090.74
2018-11-28T02:04:09.828Z,99091.21
2018-11-28T02:06:39.676Z,99092.19
2018-11-28T02:09:09.780Z,99090.91
2018-11-28T02:11:39.769Z,99085.20
2018-11-28T02:14:09.804Z,99081.94
2018-11-28T02:16:39.592Z,99078.25
2018-11-28T02:19:09.396Z,99073.91
2018-11-28T02:21:39.258Z,99066.95
2018-11-28T02:24:09.112Z,99068.01
2018-11-28T02:26:38.932Z,99072.28
2018-11-28T02:29:08.992Z,99072.73
2018-11-28T02:31:38.869Z,99067.69
2018-11-28T02:34:08.874Z,99067.98
2018-11-28T02:36:38.812Z,99068.95
2018-11-28T02:39:10.129Z,99066.66
2018-11-28T02:41:40.069Z,99059.50
2018-11-28T02:44:10.885Z,99060.52
2018-11-28T02:46:40.716Z,99066.05
2018-11-28T02:49:10.912Z,99069.11
2018-11-28T02:51:40.760Z,99066.78
2018-11-28T02:54:10.957Z,99071.20
2018-11-28T02:56:40.904Z,99065.89
2018-11-28T02:59:10.725Z,99064.14
2018-11-28T03:01:40.601Z,99073.16
2018-11-28T03:04:10.417Z,99068.48
2018-11-28T03:06:40.266Z,99072.52
2018-11-28T03:09:10.162Z,99069.89
2018-11-28T03:11:40.125Z,99065.93
2018-11-28T03:14:10.009Z,99067.08
2018-11-28T03:16:39.970Z,99072.14
2018-11-28T03:19:09.853Z,99079.77
2018-11-28T03:21:40.121Z,99084.40
2018-11-28T03:24:10.061Z,99078.02
2018-11-28T03:26:39.897Z,99077.97
2018-11-28T03:29:09.809Z,99074.05
2018-11-28T03:31:39.686Z,99075.97
2018-11-28T03:34:09.516Z,99081.03
2018-11-28T03:36:39.352Z,99085.20
2018-11-28T03:39:09.984Z,99086.34
2018-11-28T03:41:39.934Z,99088.91
2018-11-28T03:44:09.781Z,99084.56
2018-11-28T03:46:39.713Z,99082.81
2018-11-28T03:49:10.074Z,99082.77
2018-11-28T03:51:39.913Z,99093.83
2018-11-28T03:54:10.198Z,99097.70
2018-11-28T03:56:40.097Z,99097.93
2018-11-28T03:59:10.580Z,99090.86
2018-11-28T04:01:40.451Z,99091.55
2018-11-28T04:04:10.382Z,99077.24
2018-11-28T04:06:40.229Z,99081.33
2018-11-28T04:09:10.091Z,99079.63
2018-11-28T04:11:40.005Z,99075.15
2018-11-28T04:14:10.008Z,99074.09
2018-11-28T04:16:39.940Z,99071.45
2018-11-28T04:19:09.781Z,99079.67
2018-11-28T04:21:39.874Z,99074.30
2018-11-28T04:24:09.864Z,99074.81
2018-11-28T04:26:40.308Z,99072.64
2018-11-28T04:29:10.204Z,99076.86
2018-11-28T04:31:40.144Z,99075.88
2018-11-28T04:34:10.136Z,99082.30
2018-11-28T04:36:40.025Z,99083.82
2018-11-28T04:39:10.019Z,99080.88
2018-11-28T04:41:39.996Z,99083.98
2018-11-28T04:44:10.001Z,99089.91
2018-11-28T04:46:39.874Z,99084.08
2018-11-28T04:49:09.733Z,99085.70
2018-11-28T04:51:39.712Z,99088.56
2018-11-28T04:54:09.612Z,99090.77
2018-11-28T04:56:39.492Z,99086.94
2018-11-28T04:59:09.289Z,99085.23
2018-11-28T05:01:39.245Z,99081.41
2018-11-28T05:04:09.185Z,99069.36
2018-11-28T05:07:45.469Z,99069.95
2018-11-28T05:10:28.037Z,99066.55
2018-11-28T05:12:58.820Z,99056.14
2018-11-28T05:15:31.285Z,99060.86
2018-11-28T05:18:01.460Z,99063.70
2018-11-28T05:20:34.208Z,99059.28
2018-11-28T05:23:05.230Z,99060.41
2018-11-28T05:25:36.717Z,99063.30
2018-11-28T05:28:06.808Z,99060.93
2018-11-28T05:30:36.668Z,99074.00
2018-11-28T05:33:06.892Z,99072.55
2018-11-28T05:35:38.188Z,99065.14
2018-11-28T05:38:12.580Z,99069.98
2018-11-28T05:40:43.509Z,99069.24
2018-11-28T05:43:13.280Z,99066.73
2018-11-28T05:45:43.241Z,99070.56
2018-11-28T05:48:13.063Z,99071.83
2018-11-28T05:50:42.962Z,99074.20
2018-11-28T05:53:12.720Z,99075.19
2018-11-28T05:55:42.684Z,99080.99
2018-11-28T05:58:12.449Z,99087.35
2018-11-28T06:00:42.572Z,99083.11
2018-11-28T06:03:13.424Z,99095.80
2018-11-28T06:05:43.671Z,99088.02
2018-11-28T06:08:13.444Z,99089.20
2018-11-28T06:10:43.402Z,99097.26
2018-11-28T06:13:13.280Z,99095.00
2018-11-28T06:15:43.224Z,99095.00
2018-11-28T06:18:13.289Z,99097.59
2018-11-28T06:20:43.272Z,99098.39
2018-11-28T06:23:13.365Z,99107.50
2018-11-28T06:25:43.431Z,99108.08
2018-11-28T06:28:13.237Z,99107.03
2018-11-28T06:30:43.256Z,99110.15
2018-11-28T06:33:13.069Z,99112.38
2018-11-28T06:35:42.956Z,99108.50
2018-11-28T06:38:12.828Z,99105.58
2018-11-28T06:40:42.629Z,99109.48
2018-11-28T06:43:12.497Z,99105.99
2018-11-28T06:45:42.439Z,99107.70
2018-11-28T06:48:12.410Z,99099.77
2018-11-28T06:50:42.236Z,99099.25
2018-11-28T06:53:12.165Z,99110.86
2018-11-28T06:55:41.964Z,99124.08
2018-11-28T06:58:11.791Z,99115.95
2018-11-28T07:00:41.672Z,99124.02
2018-11-28T07:03:11.518Z,99130.48
2018-11-28T07:05:41.596Z,99137.70
2018-11-28T07:08:18.052Z,99143.52
2018-11-28T07:10:48.963Z,99150.78
2018-11-28T07:13:18.858Z,99147.48
2018-11-28T07:15:48.626Z,99147.48
2018-11-28T07:18:29.564Z,99151.17
2018-11-28T07:20:59.459Z,99156.87
2018-11-28T07:23:29.340Z,99151.95
2018-11-28T07:25:59.376Z,99157.63
2018-11-28T07:28:29.385Z,99163.72
2018-11-28T07:30:59.417Z,99162.92
2018-11-28T07:33:29.277Z,99171.73
2018-11-28T07:35:59.225Z,99171.13
2018-11-28T07:38:29.009Z,99170.19
2018-11-28T07:40:58.844Z,99172.96
2018-11-28T07:43:32.968Z,99165.30
2018-11-28T07:46:03.418Z,99166.34
2018-11-28T07:48:35.112Z,99165.43
2018-11-28T07:51:05.036Z,99175.58
2018-11-28T07:53:34.873Z,99164.09
2018-11-28T07:56:04.885Z,99168.56
2018-11-28T07:58:34.841Z,99166.16
2018-11-28T08:01:04.923Z,99164.09
2018-11-28T08:03:35.805Z,99169.56
2018-11-28T08:06:05.788Z,99165.94
2018-11-28T08:08:38.107Z,99169.80
2018-11-28T08:11:08.409Z,99166.17
2018-11-28T08:13:38.293Z,99170.25
2018-11-28T08:16:08.089Z,99165.44
2018-11-28T08:18:37.952Z,99160.40
2018-11-28T08:21:07.889Z,99165.64
2018-11-28T08:23:37.789Z,99170.32
2018-11-28T08:26:07.892Z,99175.34
2018-11-28T08:28:37.825Z,99175.44
2018-11-28T08:31:07.708Z,99167.87
2018-11-28T08:33:37.554Z,99172.94
2018-11-28T08:36:07.488Z,99177.09
2018-11-28T08:38:38.305Z,99180.43
2018-11-28T08:41:08.807Z,99180.73
2018-11-28T08:43:38.000Z,99186.03
2018-11-28T08:46:07.826Z,99185.30
2018-11-28T08:48:37.711Z,99185.84
2018-11-28T08:51:07.647Z,99186.51
2018-11-28T08:53:37.492Z,99183.92
2018-11-28T08:56:07.395Z,99181.41
2018-11-28T08:58:37.328Z,99184.34
2018-11-28T09:01:07.412Z,99187.20
2018-11-28T09:03:38.284Z,99185.69
2018-11-28T09:06:08.153Z,99181.64
2018-11-28T09:08:37.948Z,99187.38
2018-11-28T09:11:07.947Z,99182.66
2018-11-28T09:13:37.761Z,99184.11
2018-11-28T09:16:08.065Z,99183.03
2018-11-28T09:18:37.957Z,99186.88
2018-11-28T09:21:07.776Z,99188.23
2018-11-28T09:23:37.666Z,99194.12
2018-11-28T09:26:07.531Z,99192.39
2018-11-28T09:28:37.394Z,99189.73
2018-11-28T09:31:07.312Z,99190.51
2018-11-28T09:33:37.296Z,99196.19
2018-11-28T09:36:07.276Z,99202.34
2018-11-28T09:38:37.260Z,99204.15
2018-11-28T09:41:07.425Z,99212.12
2018-11-28T09:43:37.296Z,99213.88
2018-11-28T09:46:07.589Z,99215.98
2018-11-28T09:48:37.532Z,99213.81
2018-11-28T09:51:08.092Z,99217.48
2018-11-28T09:53:38.042Z,99211.62
2018-11-28T09:56:07.927Z,99213.00
2018-11-28T09:58:37.805Z,99205.82
2018-11-28T10:01:07.627Z,99199.67
2018-11-28T10:03:37.448Z,99192.95
2018-11-28T10:06:07.503Z,99199.91
2018-11-28T10:08:37.378Z,99200.34
2018-11-28T10:11:07.539Z,99199.64
2018-11-28T10:13:37.384Z,99199.24
2018-11-28T10:16:07.353Z,99199.43
2018-11-28T10:18:37.238Z,99201.71
2018-11-28T10:21:07.395Z,99203.70
2018-11-28T10:23:37.156Z,99204.18
2018-11-28T10:26:07.738Z,99203.08
2018-11-28T10:28:37.613Z,99197.16
2018-11-28T10:31:07.556Z,99196.80
2018-11-28T10:33:37.734Z,99192.02
2018-11-28T10:36:07.544Z,99197.95
2018-11-28T10:38:37.369Z,99186.62
2018-11-28T10:41:08.404Z,99199.66
2018-11-28T10:43:37.421Z,99195.47
2018-11-28T10:46:07.381Z,99195.08
2018-11-28T10:48:37.224Z,99190.21
2018-11-28T10:51:07.576Z,99186.31
2018-11-28T10:53:37.475Z,99186.53
2018-11-28T10:56:07.304Z,99189.56
2018-11-28T10:58:37.221Z,99195.47
2018-11-28T11:01:12.448Z,99186.92
2018-11-28T11:03:47.648Z,99196.45
2018-11-28T11:06:22.775Z,99193.61
2018-11-28T11:10:00.959Z,99189.38
2018-11-28T11:12:36.046Z,99198.97
2018-11-28T11:15:06.293Z,99196.16
2018-11-28T11:17:36.125Z,99192.23
2018-11-28T11:20:06.547Z,99203.23
2018-11-28T11:22:36.432Z,99199.20
2018-11-28T11:25:06.932Z,99198.33
2018-11-28T11:27:36.709Z,99202.09
2018-11-28T11:30:09.485Z,99207.51
2018-11-28T11:32:39.422Z,99201.45
2018-11-28T11:35:10.227Z,99199.40
2018-11-28T11:37:40.060Z,99194.59
2018-11-28T11:40:12.128Z,99196.39
2018-11-28T11:42:42.048Z,99199.08
2018-11-28T11:45:13.264Z,99199.48
2018-11-28T11:47:43.789Z,99199.28
2018-11-28T11:50:15.979Z,99195.28
2018-11-28T11:52:46.093Z,99191.41
2018-11-28T11:55:18.217Z,99203.91
2018-11-28T11:57:48.768Z,99195.83
2018-11-28T12:00:26.363Z,99191.61
2018-11-28T12:03:04.529Z,99192.04
2018-11-28T12:05:34.400Z,99186.16
2018-11-28T12:08:04.527Z,99187.55
2018-11-28T12:10:34.469Z,99184.61
2018-11-28T12:13:04.443Z,99183.00
2018-11-28T12:15:35.643Z,99181.80
2018-11-28T12:18:04.244Z,99179.28
2018-11-28T12:20:44.692Z,99174.09
2018-11-28T12:23:14.556Z,99171.90
2018-11-28T12:25:44.365Z,99161.89
2018-11-28T12:28:14.318Z,99165.65
2018-11-28T12:30:44.322Z,99161.90
2018-11-28T12:33:14.240Z,99167.19
2018-11-28T12:35:44.244Z,99159.69
2018-11-28T12:38:14.178Z,99162.62
2018-11-28T12:40:44.146Z,99155.84
2018-11-28T12:43:13.998Z,99154.00
2018-11-28T12:45:48.297Z,99147.30
2018-11-28T12:48:18.207Z,99146.68
2018-11-28T12:50:48.226Z,99155.09
2018-11-28T12:53:18.026Z,99156.08
2018-11-28T12:55:47.892Z,99158.78
2018-11-28T12:58:19.274Z,99156.19
2018-11-28T13:00:49.344Z,99160.20
2018-11-28T13:03:19.584Z,99164.84
2018-11-28T13:05:49.569Z,99159.05
2018-11-28T13:08:19.812Z,99156.72
2018-11-28T13:10:49.839Z,99159.88
2018-11-28T13:13:19.918Z,99151.30
2018-11-28T13:15:50.369Z,99144.94
2018-11-28T13:18:20.280Z,99153.20
2018-11-28T13:20:50.136Z,99152.08
2018-11-28T13:23:22.882Z,99144.48
2018-11-28T13:25:53.439Z,99156.91
2018-11-28T13:28:23.611Z,99153.80
2018-11-28T13:30:53.432Z,99149.05
2018-11-28T13:33:23.297Z,99147.08
2018-11-28T13:35:53.174Z,99150.22
2018-11-28T13:38:23.370Z,99145.77
2018-11-28T13:40:53.199Z,99149.04
2018-11-28T13:43:23.187Z,99141.22
2018-11-28T13:45:54.007Z,99138.75
2018-11-28T13:48:23.909Z,99143.52
2018-11-28T13:50:53.769Z,99147.44
2018-11-28T13:53:23.561Z,99151.63
2018-11-28T13:56:57.382Z,99151.72
2018-11-28T13:58:25.794Z,99154.18
2018-11-28T14:00:55.704Z,99148.28
2018-11-28T14:03:25.653Z,99157.14
2018-11-28T14:05:55.536Z,99157.42
2018-11-28T14:08:25.576Z,99157.41
2018-11-28T14:10:55.396Z,99157.58
2018-11-28T14:13:26.048Z,99155.87
2018-11-28T14:15:55.920Z,99163.32
2018-11-28T14:18:25.802Z,99168.23
2018-11-28T14:20:56.183Z,99166.78
2018-11-28T14:23:26.072Z,99163.25
2018-11-28T14:25:55.947Z,99163.41
2018-11-28T14:28:25.784Z,99168.14
2018-11-28T14:30:55.703Z,99167.38
2018-11-28T14:33:26.276Z,99155.85
2018-11-28T14:35:56.220Z,99158.40
2018-11-28T14:38:26.036Z,99149.98
2018-11-28T14:40:55.864Z,99148.66
2018-11-28T14:43:25.691Z,99151.91
2018-11-28T14:45:55.536Z,99155.85
2018-11-28T14:48:25.580Z,99150.83
2018-11-28T14:50:55.432Z,99149.91
2018-11-28T14:53:25.366Z,99149.98
2018-11-28T14:55:55.304Z,99152.45
2018-11-28T14:58:25.212Z,99149.97
2018-11-28T15:00:55.073Z,99148.48
2018-11-28T15:03:24.935Z,99154.87
2018-11-28T15:06:03.628Z,99145.39
2018-11-28T15:08:34.185Z,99135.56
2018-11-28T15:11:08.864Z,99131.83
2018-11-28T15:13:39.364Z,99132.71
2018-11-28T15:16:09.300Z,99138.53
2018-11-28T15:18:39.320Z,99140.23
2018-11-28T15:21:10.349Z,99145.12
2018-11-28T15:23:40.979Z,99147.48
2018-11-28T15:26:11.043Z,99153.03
2018-11-28T15:28:41.173Z,99144.46
2018-11-28T15:31:11.557Z,99145.89
2018-11-28T15:33:41.479Z,99143.41
2018-11-28T15:36:11.457Z,99143.97
2018-11-28T15:38:41.684Z,99132.61
2018-11-28T15:41:11.548Z,99125.03
2018-11-28T15:43:41.450Z,99130.98
2018-11-28T15:46:14.915Z,99133.34
2018-11-28T15:48:42.248Z,99132.08
2018-11-28T15:51:12.156Z,99133.84
2018-11-28T15:53:42.221Z,99124.11
2018-11-28T15:56:12.339Z,99127.20
2018-11-28T15:58:42.240Z,99130.27
2018-11-28T16:01:12.163Z,99126.76
2018-11-28T16:03:42.140Z,99134.97
2018-11-28T16:06:12.052Z,99133.09
2018-11-28T16:08:43.332Z,99130.98
2018-11-28T16:11:17.920Z,99137.28
2018-11-28T16:13:47.836Z,99134.49
2018-11-28T16:16:17.818Z,99142.22
2018-11-28T16:18:47.655Z,99139.36
2018-11-28T16:21:17.641Z,99151.13
2018-11-28T16:23:47.600Z,99156.27
2018-11-28T16:26:17.464Z,99161.81
2018-11-28T16:28:47.343Z,99162.36
2018-11-28T16:31:17.309Z,99169.47
2018-11-28T16:33:47.108Z,99168.28
2018-11-28T16:36:17.300Z,99177.54
2018-11-28T16:38:47.174Z,99173.59
2018-11-28T16:41:17.578Z,99170.94
2018-11-28T16:43:47.418Z,99173.11
2018-11-28T16:46:17.419Z,99169.30
2018-11-28T16:48:47.239Z,99173.59
2018-11-28T16:51:17.156Z,99168.28
2018-11-28T16:53:46.911Z,99173.22
2018-11-28T16:56:16.769Z,99161.03
2018-11-28T16:58:47.286Z,99164.95
2018-11-28T17:01:17.212Z,99165.42
2018-11-28T17:03:46.988Z,99172.91
2018-11-28T17:06:16.925Z,99171.58
2018-11-28T17:08:46.760Z,99172.59
2018-11-28T17:11:16.692Z,99176.89
2018-11-28T17:13:46.594Z,99177.36
2018-11-28T17:16:16.432Z,99178.14
2018-11-28T17:18:46.320Z,99177.84
2018-11-28T17:21:16.117Z,99177.67
2018-11-28T17:23:45.945Z,99181.27
2018-11-28T17:26:15.742Z,99185.56
2018-11-28T17:28:45.529Z,99189.07
2018-11-28T17:31:15.481Z,99186.41
2018-11-28T17:33:45.298Z,99176.58
2018-11-28T17:36:15.133Z,99178.35
2018-11-28T17:38:45.124Z,99177.64
2018-11-28T17:41:14.996Z,99177.33
2018-11-28T17:43:44.881Z,99180.39
2018-11-28T17:46:14.666Z,99179.85
2018-11-28T17:48:44.543Z,99186.83
2018-11-28T17:51:14.623Z,99187.67
2018-11-28T17:53:44.427Z,99190.84
2018-11-28T17:56:14.220Z,99193.87
2018-11-28T17:58:44.140Z,99196.53
2018-11-28T18:01:13.935Z,99196.12
2018-11-28T18:03:43.765Z,99199.19
2018-11-28T18:06:13.565Z,99204.93
2018-11-28T18:08:43.383Z,99211.56
2018-11-28T18:11:14.241Z,99216.17
2018-11-28T18:13:44.981Z,99215.01
2018-11-28T18:16:14.893Z,99223.72
2018-11-28T18:18:44.753Z,99218.41
2018-11-28T18:21:14.673Z,99213.68
2018-11-28T18:23:44.609Z,99210.07
2018-11-28T18:26:15.489Z,99211.78
2018-11-28T18:28:45.389Z,99213.10
2018-11-28T18:31:15.208Z,99216.13
2018-11-28T18:33:45.122Z,99216.06
2018-11-28T18:36:14.900Z,99216.71
2018-11-28T18:38:44.672Z,99217.02
2018-11-28T18:41:14.517Z,99212.08
2018-11-28T18:43:44.377Z,99214.43
2018-11-28T18:46:14.184Z,99220.05
2018-11-28T18:48:44.604Z,99214.84
2018-11-28T18:51:14.532Z,99216.64
2018-11-28T18:53:49.394Z,99212.97
2018-11-28T18:56:14.420Z,99210.63
2018-11-28T18:58:44.811Z,99220.83
2018-11-28T19:01:14.704Z,99224.34
2018-11-28T19:03:44.696Z,99221.31
2018-11-28T19:06:14.643Z,99226.92
2018-11-28T19:08:44.600Z,99229.17
2018-11-28T19:11:14.390Z,99224.72
2018-11-28T19:13:45.068Z,99221.20
2018-11-28T19:16:14.903Z,99225.19
2018-11-28T19:18:44.755Z,99231.59
2018-11-28T19:21:14.672Z,99230.27
2018-11-28T19:23:45.208Z,99229.11
2018-11-28T19:26:15.184Z,99223.08
2018-11-28T19:28:45.260Z,99223.31
2018-11-28T19:31:15.133Z,99217.59
2018-11-28T19:33:45.240Z,99220.25
2018-11-28T19:36:15.896Z,99213.07
2018-11-28T19:38:45.918Z,99202.38
2018-11-28T19:41:25.192Z,99196.22
2018-11-28T19:43:55.241Z,99190.30
2018-11-28T19:46:26.152Z,99187.34
2018-11-28T19:48:56.021Z,99178.28
2018-11-28T19:51:25.936Z,99186.80
2018-11-28T19:53:55.788Z,99189.21
2018-11-28T19:56:26.013Z,99192.65
2018-11-28T19:58:55.849Z,99195.84
2018-11-28T20:01:25.913Z,99190.41
2018-11-28T20:04:58.920Z,99198.81
2018-11-28T20:07:28.797Z,99201.77
2018-11-28T20:09:59.024Z,99200.55
2018-11-28T20:12:28.837Z,99199.28
2018-11-28T20:14:59.469Z,99201.63
2018-11-28T20:17:29.542Z,99196.86
2018-11-28T20:19:59.517Z,99193.52
2018-11-28T20:22:29.445Z,99200.16
2018-11-28T20:24:59.373Z,99206.48
2018-11-28T20:27:29.251Z,99208.19
2018-11-28T20:29:59.372Z,99208.81
2018-11-28T20:32:30.432Z,99207.55
2018-11-28T20:35:02.976Z,99211.70
2018-11-28T20:37:29.104Z,99212.35
2018-11-28T20:39:58.904Z,99203.06
2018-11-28T20:42:28.759Z,99200.23
2018-11-28T20:44:58.637Z,99196.77
2018-11-28T20:47:28.505Z,99195.84
2018-11-28T20:49:58.413Z,99201.47
2018-11-28T20:52:28.330Z,99202.79
2018-11-28T20:54:58.123Z,99202.01
2018-11-28T20:57:28.069Z,99209.42
2018-11-28T20:59:57.890Z,99200.98
2018-11-28T21:02:27.772Z,99197.17
2018-11-28T21:04:57.773Z,99191.56
2018-11-28T21:07:27.692Z,99192.65
2018-11-28T21:10:01.657Z,99190.78
2018-11-28T21:12:31.552Z,99186.25
2018-11-28T21:15:01.449Z,99182.40
2018-11-28T21:17:31.949Z,99189.27
2018-11-28T21:20:01.717Z,99192.61
2018-11-28T21:22:31.716Z,99192.61
2018-11-28T21:25:01.616Z,99194.95
2018-11-28T21:27:31.593Z,99195.67
2018-11-28T21:30:01.466Z,99188.73
2018-11-28T21:32:31.371Z,99182.58
2018-11-28T21:35:01.232Z,99179.61
2018-11-28T21:37:31.108Z,99180.94
2018-11-28T21:40:00.916Z,99177.57
2018-11-28T21:42:30.805Z,99168.69
2018-11-28T21:45:00.619Z,99168.69
2018-11-28T21:47:30.499Z,99164.23
2018-11-28T21:50:00.350Z,99157.59
2018-11-28T21:52:30.232Z,99157.22
2018-11-28T21:55:00.064Z,99157.11
2018-11-28T21:57:29.853Z,99161.20
2018-11-28T21:59:59.781Z,99159.70
2018-11-28T22:02:29.640Z,99155.31
2018-11-28T22:04:59.575Z,99151.50
2018-11-28T22:07:29.452Z,99142.98
2018-11-28T22:09:59.285Z,99141.66
2018-11-28T22:12:29.142Z,99135.98
2018-11-28T22:14:59.008Z,99135.20
2018-11-28T22:17:28.896Z,99132.14
2018-11-28T22:19:58.754Z,99138.77
2018-11-28T22:22:28.672Z,99137.24
2018-11-28T22:24:58.476Z,99131.22
2018-11-28T22:27:30.322Z,99127.13
2018-11-28T22:30:03.941Z,99126.58
2018-11-28T22:32:33.776Z,99109.16
2018-11-28T22:35:03.721Z,99102.99
2018-11-28T22:37:33.505Z,99101.36
2018-11-28T22:40:03.412Z,99109.80
2018-11-28T22:42:33.476Z,99108.17
2018-11-28T22:45:03.393Z,99100.14
2018-11-28T22:47:33.209Z,99106.17
2018-11-28T22:50:03.154Z,99112.55
2018-11-28T22:52:38.735Z,99119.83
2018-11-28T22:55:10.233Z,99128.03
2018-11-28T22:57:40.265Z,99119.28
2018-11-28T23:00:16.682Z,99122.96
2018-11-28T23:02:57.856Z,99119.83
2018-11-28T23:05:30.060Z,99110.06
2018-11-28T23:08:01.848Z,99099.52
2018-11-28T23:10:31.858Z,99097.70
2018-11-28T23:13:01.654Z,99084.67
2018-11-28T23:15:31.534Z,99086.89
2018-11-28T23:18:01.403Z,99096.25
2018-11-28T23:20:31.308Z,99083.53
2018-11-28T23:23:01.212Z,99095.02
2018-11-28T23:25:31.060Z,99088.33
2018-11-28T23:28:00.932Z,99085.67
2018-11-28T23:30:31.164Z,99098.30
2018-11-28T23:33:01.068Z,99098.60
2018-11-28T23:35:31.321Z,99105.03
2018-11-28T23:38:01.315Z,99101.80
2018-11-28T23:40:31.140Z,99106.66
2018-11-28T23:43:01.029Z,99102.41
2018-11-28T23:45:31.446Z,99100.06
2018-11-28T23:48:01.277Z,99108.42
2018-11-28T23:50:31.228Z,99101.86
2018-11-28T23:53:01.108Z,99095.05
2018-11-28T23:55:31.709Z,99088.66
2018-11-28T23:58:01.551Z,99075.17
